WADD/DPS METAR and TAF weather

Enter ICAO airport designator
Station Type Date Time Source
WADD METAR 2019/08/25 19:30 UTC NOAA

WADD 251930Z 13008KT 9999 SCT016 25/23 Q1012 NOSIG


Station Type Date Time Source
WADD Decoded METAR 2019/08/25 19:30 UTC NOAA

Station name not available
Aug 25, 2019 - 03:30 PM EDT / 2019.08.25 1930 UTC
Wind: from the SE (130 degrees) at 9 MPH (8 KT):0
Visibility: greater than 7 mile(s):0
Sky conditions: partly cloudy
Temperature: 77 F (25 C)
Dew Point: 73 F (23 C)
Relative Humidity: 88%
Pressure (altimeter): 29.88 in. Hg (1012 hPa)
ob: WADD 251930Z 13008KT 9999 SCT016 25/23 Q1012 NOSIG
cycle: 19

Station Type Date Time Source
WADD TAF 2019/08/25 18:09 UTC NOAA

TAF TAF WADD 251700Z 2518/2618 11008KT 9999 SCT016
BECMG 2600/2602 12013KT

Example: see airport list